Ames, IA

7:17 AM CDT on September 29, 2016 (GMT -0500)
Ames 15th Street | | Change Station

Elev 915 ft 42.04 °N, 93.62 °W | Updated 8 seconds ago

Clear
Clear
47.3 °F
Feels Like 47 °F
N
0.9
Wind Variable Wind from North
Gusts 2.0 mph

Today
High -- | Low -- °F
--% Chance of Precip.
Yesterday
High -- | Low -- °F
Precip. -- in
Pressure 30.37 in
Visibility 10.0 miles
Clouds Clear
Windchill 47 °F
Dew Point 46 °F
Humidity 95%
Rainfall 0.00 in
Snow Depth Not available.
7:09 AM 6:58 PM
Waning Crescent, 2% visible
METAR KAMW 291153Z AUTO 35007KT 10SM CLR 09/09 A3037 RMK AO2 SLP284 T00890089 10111 20083 53013
Pressure 30.37 in
Visibility 10.0 miles
Clouds Clear
Windchill 47 °F
Dew Point 46 °F
Humidity 95%
Rainfall 0.00 in
Snow Depth Not available.
7:09 AM 6:58 PM
Waning Crescent, 2% visible
METAR KAMW 291153Z AUTO 35007KT 10SM CLR 09/09 A3037 RMK AO2 SLP284 T00890089 10111 20083 53013

10-Day Weather Forecast

Almanac

Astronomy

Sep. 29, 2016 Rise Set
Actual Time
Civil Twilight
Nautical Twilight
Astronomical Twilight
Moon
Length of Visible Light
Length of Day
Tomorrow will be .
, % of the Moon is Illuminated

Today's Extremes

State Highs State Lows

Community

WunderPhotos

Upload Photos

1,942,466 photos uploaded!

WunderBlog® & News

Nearby

Air Quality

  Air Quality AQ Index Pollutant
Not available.

Snow Depth

Station Depth Elevation

Earthquake Activity

City Distance Mag. Time & Date
Minimum magnitude displayed is 2.5.

Coastal Water Temperatures

Place Temperature

Stations

Nearby Weather Stations

Station Location Temp. Windchill Dew Point Humidity Wind Precip. Elev Updated Type
                   

Watches & Warnings

There are currently no watches in effect.